sensor_id;sensor_type;location;lat;lon;timestamp;P1;durP1;ratioP1;P2;durP2;ratioP2
37891;SDS011;45797;47.466;9.486;2023-05-19T00:01:25;4.15;;;1.90;;
37891;SDS011;45797;47.466;9.486;2023-05-19T00:06:28;5.28;;;2.30;;
37891;SDS011;45797;47.466;9.486;2023-05-19T00:11:34;7.38;;;2.25;;
37891;SDS011;45797;47.466;9.486;2023-05-19T00:16:37;5.53;;;2.22;;
37891;SDS011;45797;47.466;9.486;2023-05-19T00:21:54;3.78;;;1.80;;
37891;SDS011;45797;47.466;9.486;2023-05-19T00:27:01;2.88;;;1.70;;
37891;SDS011;45797;47.466;9.486;2023-05-19T00:32:02;4.70;;;1.80;;
37891;SDS011;45797;47.466;9.486;2023-05-19T00:37:03;3.65;;;1.92;;
37891;SDS011;45797;47.466;9.486;2023-05-19T00:42:03;6.25;;;2.03;;
37891;SDS011;45797;47.466;9.486;2023-05-19T00:47:15;6.55;;;2.00;;
37891;SDS011;45797;47.466;9.486;2023-05-19T00:52:15;4.15;;;2.05;;
37891;SDS011;45797;47.466;9.486;2023-05-19T01:02:27;3.63;;;2.00;;
37891;SDS011;45797;47.466;9.486;2023-05-19T01:07:28;3.63;;;1.75;;
37891;SDS011;45797;47.466;9.486;2023-05-19T01:12:44;2.97;;;1.80;;
37891;SDS011;45797;47.466;9.486;2023-05-19T01:17:47;8.05;;;2.40;;
37891;SDS011;45797;47.466;9.486;2023-05-19T01:33:41;4.00;;;1.90;;
37891;SDS011;45797;47.466;9.486;2023-05-19T01:38:44;3.75;;;1.85;;
37891;SDS011;45797;47.466;9.486;2023-05-19T01:43:53;5.28;;;1.83;;
37891;SDS011;45797;47.466;9.486;2023-05-19T01:48:56;3.53;;;1.85;;
37891;SDS011;45797;47.466;9.486;2023-05-19T01:53:57;3.38;;;1.67;;
37891;SDS011;45797;47.466;9.486;2023-05-19T01:58:59;4.50;;;1.95;;
37891;SDS011;45797;47.466;9.486;2023-05-19T02:25:27;4.95;;;1.95;;
37891;SDS011;45797;47.466;9.486;2023-05-19T02:30:29;4.65;;;2.10;;
37891;SDS011;45797;47.466;9.486;2023-05-19T02:35:33;4.05;;;2.00;;
37891;SDS011;45797;47.466;9.486;2023-05-19T02:40:33;5.78;;;1.90;;
37891;SDS011;45797;47.466;9.486;2023-05-19T02:45:43;3.50;;;1.60;;
37891;SDS011;45797;47.466;9.486;2023-05-19T02:50:44;3.30;;;1.80;;
37891;SDS011;45797;47.466;9.486;2023-05-19T02:55:44;3.35;;;1.55;;
37891;SDS011;45797;47.466;9.486;2023-05-19T03:00:45;3.75;;;2.00;;
37891;SDS011;45797;47.466;9.486;2023-05-19T03:05:45;3.17;;;1.70;;
37891;SDS011;45797;47.466;9.486;2023-05-19T03:10:47;4.63;;;1.77;;
37891;SDS011;45797;47.466;9.486;2023-05-19T03:15:48;3.78;;;1.75;;
37891;SDS011;45797;47.466;9.486;2023-05-19T03:20:49;3.72;;;1.63;;
37891;SDS011;45797;47.466;9.486;2023-05-19T03:25:50;3.92;;;1.50;;
37891;SDS011;45797;47.466;9.486;2023-05-19T03:30:51;4.43;;;1.90;;
37891;SDS011;45797;47.466;9.486;2023-05-19T03:35:57;3.83;;;1.65;;
37891;SDS011;45797;47.466;9.486;2023-05-19T03:41:01;5.45;;;1.92;;
37891;SDS011;45797;47.466;9.486;2023-05-19T03:46:01;3.80;;;1.75;;
37891;SDS011;45797;47.466;9.486;2023-05-19T03:51:21;3.47;;;1.55;;
37891;SDS011;45797;47.466;9.486;2023-05-19T03:56:25;2.42;;;1.30;;
37891;SDS011;45797;47.466;9.486;2023-05-19T04:01:27;2.65;;;1.58;;
37891;SDS011;45797;47.466;9.486;2023-05-19T04:06:28;4.90;;;1.63;;
37891;SDS011;45797;47.466;9.486;2023-05-19T04:11:30;3.72;;;1.60;;
37891;SDS011;45797;47.466;9.486;2023-05-19T04:16:33;3.40;;;1.75;;
37891;SDS011;45797;47.466;9.486;2023-05-19T04:21:50;3.28;;;1.63;;
37891;SDS011;45797;47.466;9.486;2023-05-19T04:26:50;4.45;;;1.77;;
37891;SDS011;45797;47.466;9.486;2023-05-19T04:42:26;3.70;;;1.58;;
37891;SDS011;45797;47.466;9.486;2023-05-19T04:47:31;3.05;;;1.70;;
37891;SDS011;45797;47.466;9.486;2023-05-19T04:52:35;4.70;;;1.95;;
37891;SDS011;45797;47.466;9.486;2023-05-19T04:57:38;4.18;;;2.08;;
37891;SDS011;45797;47.466;9.486;2023-05-19T05:02:47;4.63;;;1.80;;
37891;SDS011;45797;47.466;9.486;2023-05-19T05:07:52;6.03;;;2.20;;
37891;SDS011;45797;47.466;9.486;2023-05-19T05:12:54;3.42;;;1.90;;
37891;SDS011;45797;47.466;9.486;2023-05-19T05:17:55;3.70;;;1.95;;
37891;SDS011;45797;47.466;9.486;2023-05-19T05:22:58;4.40;;;2.00;;
37891;SDS011;45797;47.466;9.486;2023-05-19T05:28:01;4.95;;;2.08;;
37891;SDS011;45797;47.466;9.486;2023-05-19T05:33:06;3.17;;;1.73;;
37891;SDS011;45797;47.466;9.486;2023-05-19T05:38:12;5.18;;;2.35;;
37891;SDS011;45797;47.466;9.486;2023-05-19T05:43:16;6.03;;;2.00;;
37891;SDS011;45797;47.466;9.486;2023-05-19T05:48:34;3.58;;;1.90;;
37891;SDS011;45797;47.466;9.486;2023-05-19T05:53:39;8.02;;;2.10;;
37891;SDS011;45797;47.466;9.486;2023-05-19T05:58:47;4.43;;;2.20;;
37891;SDS011;45797;47.466;9.486;2023-05-19T06:03:48;4.57;;;1.80;;
37891;SDS011;45797;47.466;9.486;2023-05-19T06:08:54;4.28;;;2.00;;
37891;SDS011;45797;47.466;9.486;2023-05-19T06:14:05;6.70;;;2.60;;
37891;SDS011;45797;47.466;9.486;2023-05-19T06:19:26;4.88;;;2.25;;
37891;SDS011;45797;47.466;9.486;2023-05-19T06:24:32;4.20;;;1.80;;
37891;SDS011;45797;47.466;9.486;2023-05-19T06:29:33;5.47;;;2.05;;
37891;SDS011;45797;47.466;9.486;2023-05-19T06:34:36;4.60;;;1.90;;
37891;SDS011;45797;47.466;9.486;2023-05-19T06:39:39;5.28;;;2.35;;
37891;SDS011;45797;47.466;9.486;2023-05-19T06:44:44;6.35;;;2.30;;
37891;SDS011;45797;47.466;9.486;2023-05-19T06:49:46;4.20;;;1.83;;
37891;SDS011;45797;47.466;9.486;2023-05-19T06:54:52;4.35;;;1.88;;
37891;SDS011;45797;47.466;9.486;2023-05-19T06:59:52;5.38;;;2.42;;
37891;SDS011;45797;47.466;9.486;2023-05-19T07:04:54;3.67;;;2.13;;
37891;SDS011;45797;47.466;9.486;2023-05-19T07:09:57;4.57;;;2.72;;
37891;SDS011;45797;47.466;9.486;2023-05-19T07:20:06;5.45;;;2.60;;
37891;SDS011;45797;47.466;9.486;2023-05-19T07:25:09;7.15;;;2.60;;
37891;SDS011;45797;47.466;9.486;2023-05-19T07:30:11;6.85;;;2.55;;
37891;SDS011;45797;47.466;9.486;2023-05-19T07:35:12;4.68;;;2.67;;
37891;SDS011;45797;47.466;9.486;2023-05-19T07:40:19;6.75;;;2.92;;
37891;SDS011;45797;47.466;9.486;2023-05-19T07:45:20;6.10;;;2.38;;
37891;SDS011;45797;47.466;9.486;2023-05-19T07:50:22;4.65;;;2.42;;
37891;SDS011;45797;47.466;9.486;2023-05-19T07:55:24;5.28;;;2.25;;
37891;SDS011;45797;47.466;9.486;2023-05-19T08:00:25;5.43;;;2.67;;
37891;SDS011;45797;47.466;9.486;2023-05-19T08:05:27;5.55;;;2.72;;
37891;SDS011;45797;47.466;9.486;2023-05-19T08:10:28;5.55;;;2.80;;
37891;SDS011;45797;47.466;9.486;2023-05-19T08:15:43;6.65;;;2.58;;
37891;SDS011;45797;47.466;9.486;2023-05-19T08:36:24;5.18;;;2.45;;
37891;SDS011;45797;47.466;9.486;2023-05-19T08:41:27;4.30;;;2.53;;
37891;SDS011;45797;47.466;9.486;2023-05-19T08:52:20;3.95;;;2.25;;
37891;SDS011;45797;47.466;9.486;2023-05-19T08:57:28;5.32;;;2.50;;
37891;SDS011;45797;47.466;9.486;2023-05-19T09:02:31;4.30;;;2.53;;
37891;SDS011;45797;47.466;9.486;2023-05-19T09:07:38;4.70;;;2.53;;
37891;SDS011;45797;47.466;9.486;2023-05-19T09:12:43;3.97;;;2.53;;
37891;SDS011;45797;47.466;9.486;2023-05-19T09:17:47;5.75;;;2.95;;
37891;SDS011;45797;47.466;9.486;2023-05-19T09:22:48;5.15;;;2.63;;
37891;SDS011;45797;47.466;9.486;2023-05-19T09:27:56;4.88;;;2.53;;
37891;SDS011;45797;47.466;9.486;2023-05-19T09:38:08;4.65;;;2.40;;
37891;SDS011;45797;47.466;9.486;2023-05-19T09:43:15;4.85;;;2.50;;
37891;SDS011;45797;47.466;9.486;2023-05-19T09:48:16;5.05;;;2.60;;
37891;SDS011;45797;47.466;9.486;2023-05-19T09:53:17;8.25;;;2.70;;
37891;SDS011;45797;47.466;9.486;2023-05-19T09:58:17;5.43;;;2.63;;
37891;SDS011;45797;47.466;9.486;2023-05-19T10:03:20;5.32;;;2.83;;
37891;SDS011;45797;47.466;9.486;2023-05-19T10:13:31;5.82;;;3.10;;
37891;SDS011;45797;47.466;9.486;2023-05-19T10:18:44;5.80;;;2.70;;
37891;SDS011;45797;47.466;9.486;2023-05-19T10:23:45;5.53;;;2.72;;
37891;SDS011;45797;47.466;9.486;2023-05-19T10:28:53;4.85;;;2.42;;
37891;SDS011;45797;47.466;9.486;2023-05-19T10:39:42;4.80;;;2.58;;
37891;SDS011;45797;47.466;9.486;2023-05-19T10:44:57;4.15;;;2.70;;
37891;SDS011;45797;47.466;9.486;2023-05-19T10:50:17;6.68;;;2.90;;
37891;SDS011;45797;47.466;9.486;2023-05-19T11:00:50;5.78;;;3.10;;
37891;SDS011;45797;47.466;9.486;2023-05-19T11:11:47;6.65;;;3.53;;
37891;SDS011;45797;47.466;9.486;2023-05-19T11:17:02;6.00;;;3.15;;
37891;SDS011;45797;47.466;9.486;2023-05-19T11:22:23;5.32;;;2.90;;
37891;SDS011;45797;47.466;9.486;2023-05-19T11:27:26;5.82;;;2.78;;
37891;SDS011;45797;47.466;9.486;2023-05-19T11:32:40;6.40;;;3.08;;
37891;SDS011;45797;47.466;9.486;2023-05-19T11:42:47;10.73;;;3.20;;
37891;SDS011;45797;47.466;9.486;2023-05-19T11:47:49;4.88;;;2.72;;
37891;SDS011;45797;47.466;9.486;2023-05-19T11:52:50;6.47;;;3.38;;
37891;SDS011;45797;47.466;9.486;2023-05-19T12:03:08;4.47;;;2.83;;
37891;SDS011;45797;47.466;9.486;2023-05-19T12:08:15;7.60;;;3.40;;
37891;SDS011;45797;47.466;9.486;2023-05-19T12:13:18;5.38;;;2.83;;
37891;SDS011;45797;47.466;9.486;2023-05-19T12:18:18;6.63;;;3.35;;
37891;SDS011;45797;47.466;9.486;2023-05-19T12:23:20;7.50;;;3.35;;
37891;SDS011;45797;47.466;9.486;2023-05-19T12:28:21;5.55;;;3.10;;
37891;SDS011;45797;47.466;9.486;2023-05-19T12:33:23;5.68;;;3.00;;
37891;SDS011;45797;47.466;9.486;2023-05-19T12:38:26;9.57;;;3.15;;
37891;SDS011;45797;47.466;9.486;2023-05-19T12:48:30;7.72;;;3.00;;
37891;SDS011;45797;47.466;9.486;2023-05-19T12:53:37;6.63;;;3.05;;
37891;SDS011;45797;47.466;9.486;2023-05-19T12:58:42;5.68;;;2.72;;
37891;SDS011;45797;47.466;9.486;2023-05-19T13:03:44;7.82;;;3.17;;
37891;SDS011;45797;47.466;9.486;2023-05-19T13:19:18;5.10;;;3.00;;
37891;SDS011;45797;47.466;9.486;2023-05-19T13:24:22;5.13;;;2.97;;
37891;SDS011;45797;47.466;9.486;2023-05-19T13:29:24;4.82;;;2.65;;
37891;SDS011;45797;47.466;9.486;2023-05-19T13:34:26;5.95;;;3.10;;
37891;SDS011;45797;47.466;9.486;2023-05-19T13:44:37;6.57;;;2.50;;
37891;SDS011;45797;47.466;9.486;2023-05-19T13:49:37;6.07;;;3.00;;
37891;SDS011;45797;47.466;9.486;2023-05-19T14:04:54;5.68;;;3.17;;
37891;SDS011;45797;47.466;9.486;2023-05-19T14:09:54;6.32;;;2.95;;
37891;SDS011;45797;47.466;9.486;2023-05-19T14:14:59;5.97;;;2.80;;
37891;SDS011;45797;47.466;9.486;2023-05-19T14:20:01;5.40;;;2.67;;
37891;SDS011;45797;47.466;9.486;2023-05-19T14:25:17;5.55;;;3.10;;
37891;SDS011;45797;47.466;9.486;2023-05-19T14:35:28;7.15;;;3.30;;
37891;SDS011;45797;47.466;9.486;2023-05-19T14:40:29;6.82;;;3.60;;
37891;SDS011;45797;47.466;9.486;2023-05-19T14:50:37;8.90;;;3.83;;
37891;SDS011;45797;47.466;9.486;2023-05-19T14:55:37;11.45;;;3.88;;
37891;SDS011;45797;47.466;9.486;2023-05-19T15:00:40;5.90;;;3.45;;
37891;SDS011;45797;47.466;9.486;2023-05-19T15:05:40;8.05;;;4.03;;
37891;SDS011;45797;47.466;9.486;2023-05-19T15:10:41;7.47;;;3.47;;
37891;SDS011;45797;47.466;9.486;2023-05-19T15:20:44;8.23;;;3.67;;
37891;SDS011;45797;47.466;9.486;2023-05-19T15:25:47;7.72;;;4.07;;
37891;SDS011;45797;47.466;9.486;2023-05-19T15:30:48;6.90;;;3.70;;
37891;SDS011;45797;47.466;9.486;2023-05-19T15:35:48;7.20;;;3.30;;
37891;SDS011;45797;47.466;9.486;2023-05-19T15:46:16;6.63;;;3.75;;
37891;SDS011;45797;47.466;9.486;2023-05-19T15:51:18;5.55;;;3.33;;
37891;SDS011;45797;47.466;9.486;2023-05-19T15:56:18;8.80;;;3.55;;
37891;SDS011;45797;47.466;9.486;2023-05-19T16:01:19;7.18;;;3.58;;
37891;SDS011;45797;47.466;9.486;2023-05-19T16:11:32;5.90;;;3.45;;
37891;SDS011;45797;47.466;9.486;2023-05-19T16:16:34;10.18;;;4.03;;
37891;SDS011;45797;47.466;9.486;2023-05-19T16:26:46;7.20;;;4.10;;
37891;SDS011;45797;47.466;9.486;2023-05-19T16:31:48;7.85;;;3.88;;
37891;SDS011;45797;47.466;9.486;2023-05-19T16:36:49;9.32;;;4.60;;
37891;SDS011;45797;47.466;9.486;2023-05-19T16:41:56;6.38;;;3.90;;
37891;SDS011;45797;47.466;9.486;2023-05-19T16:46:58;9.20;;;4.43;;
37891;SDS011;45797;47.466;9.486;2023-05-19T16:51:59;7.85;;;3.63;;
37891;SDS011;45797;47.466;9.486;2023-05-19T16:57:01;9.13;;;4.13;;
37891;SDS011;45797;47.466;9.486;2023-05-19T17:02:11;9.57;;;3.85;;
37891;SDS011;45797;47.466;9.486;2023-05-19T17:07:11;9.23;;;4.18;;
37891;SDS011;45797;47.466;9.486;2023-05-19T17:12:14;9.40;;;3.80;;
37891;SDS011;45797;47.466;9.486;2023-05-19T17:22:33;7.78;;;4.20;;
37891;SDS011;45797;47.466;9.486;2023-05-19T17:27:33;9.98;;;4.50;;
37891;SDS011;45797;47.466;9.486;2023-05-19T17:32:34;9.68;;;3.90;;
37891;SDS011;45797;47.466;9.486;2023-05-19T17:42:46;7.32;;;3.92;;
37891;SDS011;45797;47.466;9.486;2023-05-19T17:47:47;19.00;;;7.30;;
37891;SDS011;45797;47.466;9.486;2023-05-19T17:52:48;8.35;;;4.35;;
37891;SDS011;45797;47.466;9.486;2023-05-19T17:57:50;11.05;;;4.82;;
37891;SDS011;45797;47.466;9.486;2023-05-19T18:02:52;8.68;;;4.10;;
37891;SDS011;45797;47.466;9.486;2023-05-19T18:07:52;8.77;;;4.30;;
37891;SDS011;45797;47.466;9.486;2023-05-19T18:18:01;11.40;;;7.07;;
37891;SDS011;45797;47.466;9.486;2023-05-19T18:23:13;11.95;;;3.67;;
37891;SDS011;45797;47.466;9.486;2023-05-19T18:28:23;7.65;;;4.13;;
37891;SDS011;45797;47.466;9.486;2023-05-19T18:33:24;9.07;;;4.47;;
37891;SDS011;45797;47.466;9.486;2023-05-19T18:43:28;7.47;;;3.95;;
37891;SDS011;45797;47.466;9.486;2023-05-19T18:48:31;8.35;;;4.03;;
37891;SDS011;45797;47.466;9.486;2023-05-19T18:53:32;8.73;;;4.32;;
37891;SDS011;45797;47.466;9.486;2023-05-19T18:58:39;7.85;;;3.70;;
37891;SDS011;45797;47.466;9.486;2023-05-19T19:03:50;7.13;;;3.70;;
37891;SDS011;45797;47.466;9.486;2023-05-19T19:08:53;10.38;;;4.20;;
37891;SDS011;45797;47.466;9.486;2023-05-19T19:14:00;8.57;;;3.88;;
37891;SDS011;45797;47.466;9.486;2023-05-19T19:19:00;9.13;;;3.83;;
37891;SDS011;45797;47.466;9.486;2023-05-19T19:29:21;8.68;;;3.95;;
37891;SDS011;45797;47.466;9.486;2023-05-19T19:34:22;10.07;;;3.78;;
37891;SDS011;45797;47.466;9.486;2023-05-19T19:39:25;8.93;;;3.97;;
37891;SDS011;45797;47.466;9.486;2023-05-19T19:50:02;7.82;;;3.13;;
37891;SDS011;45797;47.466;9.486;2023-05-19T19:55:04;8.27;;;3.83;;
37891;SDS011;45797;47.466;9.486;2023-05-19T20:00:14;6.30;;;3.67;;
37891;SDS011;45797;47.466;9.486;2023-05-19T20:05:16;10.65;;;3.75;;
37891;SDS011;45797;47.466;9.486;2023-05-19T20:10:18;7.88;;;3.42;;
37891;SDS011;45797;47.466;9.486;2023-05-19T20:15:19;6.82;;;3.42;;
37891;SDS011;45797;47.466;9.486;2023-05-19T20:20:21;5.55;;;3.13;;
37891;SDS011;45797;47.466;9.486;2023-05-19T20:25:22;7.05;;;3.47;;
37891;SDS011;45797;47.466;9.486;2023-05-19T20:30:24;7.57;;;3.97;;
37891;SDS011;45797;47.466;9.486;2023-05-19T20:35:27;5.38;;;3.38;;
37891;SDS011;45797;47.466;9.486;2023-05-19T20:40:27;8.48;;;3.75;;
37891;SDS011;45797;47.466;9.486;2023-05-19T20:51:09;8.90;;;3.75;;
37891;SDS011;45797;47.466;9.486;2023-05-19T20:56:11;9.65;;;3.42;;
37891;SDS011;45797;47.466;9.486;2023-05-19T21:01:11;7.03;;;3.95;;
37891;SDS011;45797;47.466;9.486;2023-05-19T21:06:13;8.30;;;3.83;;
37891;SDS011;45797;47.466;9.486;2023-05-19T21:16:25;7.28;;;3.65;;
37891;SDS011;45797;47.466;9.486;2023-05-19T21:21:25;7.15;;;4.20;;
37891;SDS011;45797;47.466;9.486;2023-05-19T21:26:25;6.13;;;3.55;;
37891;SDS011;45797;47.466;9.486;2023-05-19T21:31:26;7.43;;;4.03;;
37891;SDS011;45797;47.466;9.486;2023-05-19T21:36:32;8.23;;;3.83;;
37891;SDS011;45797;47.466;9.486;2023-05-19T21:46:39;7.65;;;4.00;;
37891;SDS011;45797;47.466;9.486;2023-05-19T21:51:49;7.45;;;3.90;;
37891;SDS011;45797;47.466;9.486;2023-05-19T22:01:55;8.40;;;4.00;;
37891;SDS011;45797;47.466;9.486;2023-05-19T22:06:57;6.82;;;3.50;;
37891;SDS011;45797;47.466;9.486;2023-05-19T22:11:59;7.15;;;3.72;;
37891;SDS011;45797;47.466;9.486;2023-05-19T22:16:59;8.77;;;4.10;;
37891;SDS011;45797;47.466;9.486;2023-05-19T22:21:59;7.20;;;3.83;;
37891;SDS011;45797;47.466;9.486;2023-05-19T22:32:06;8.20;;;4.00;;
37891;SDS011;45797;47.466;9.486;2023-05-19T22:37:12;7.82;;;3.97;;
37891;SDS011;45797;47.466;9.486;2023-05-19T22:42:18;6.72;;;3.75;;
37891;SDS011;45797;47.466;9.486;2023-05-19T22:47:20;7.18;;;3.90;;
37891;SDS011;45797;47.466;9.486;2023-05-19T22:52:20;8.10;;;4.40;;
37891;SDS011;45797;47.466;9.486;2023-05-19T22:57:22;8.60;;;4.65;;
37891;SDS011;45797;47.466;9.486;2023-05-19T23:02:27;6.15;;;3.38;;
37891;SDS011;45797;47.466;9.486;2023-05-19T23:07:27;8.65;;;4.40;;
37891;SDS011;45797;47.466;9.486;2023-05-19T23:12:29;7.25;;;3.80;;
37891;SDS011;45797;47.466;9.486;2023-05-19T23:17:30;7.90;;;4.50;;
37891;SDS011;45797;47.466;9.486;2023-05-19T23:27:34;9.05;;;4.60;;
37891;SDS011;45797;47.466;9.486;2023-05-19T23:32:35;8.32;;;4.43;;
37891;SDS011;45797;47.466;9.486;2023-05-19T23:37:38;9.00;;;4.43;;
37891;SDS011;45797;47.466;9.486;2023-05-19T23:42:39;12.10;;;4.45;;
37891;SDS011;45797;47.466;9.486;2023-05-19T23:47:41;8.63;;;4.38;;
37891;SDS011;45797;47.466;9.486;2023-05-19T23:52:43;8.88;;;4.15;;
37891;SDS011;45797;47.466;9.486;2023-05-19T23:57:49;6.78;;;3.90;;
